Minusinsk, Russia
Current Conditions -  °F | °C
As of 2:30 AM on Thursday 18 Dec 2014 (Local Time) from UNAA Reporting Station
Broken Clouds Broken Clouds  
Wind Chill: 14°   Ceiling: 10000
Heat Index: 14°   Visibility: 6mi
Dew Point: 10°   Wind: 2mph
Humidity: 86%   Direction: NA
Pressure: 30.56"   Gusts: NA
Location:  53.71°N, 91.69°E
Report Text: UNAA 171930Z VRB01MPS 9000 SCT030CB BKN100 M10/M12 Q1035 NOSIGRMK QFE754 20190055
Loading
Personal Weather Stations






























Interactive Weather Map New forecast layout! Learn more

10-Day Weather Forecast

Advertisements
Track Severe Weather on mobile